Refuge, Texas
Current Conditions -  °F | °C
As of 2:55 AM on Monday 20 Oct 2014 (Local Time) from KDKR Reporting Station
Clear Clear  
Wind Chill: 16°   Ceiling: Unl
Heat Index: 16°   Visibility: 10mi
Dew Point: 14°   Wind: 3mph
Humidity: 88%   Direction: 70°ENE
Pressure: 30.08"   Gusts: NA
Location:  31.4982°N, 95.4177°W
Report Text: KDKR 200755Z AUTO 07003KT 10SM CLR 16/14 A3008 RMK AO2
Loading
Personal Weather Stations






























Interactive Weather Map
Tropical Storm Tracking
New forecast layout! Learn more

10-Day Weather Forecast

Advertisements
Track Severe Weather on mobile